sensor_id;sensor_type;location;lat;lon;timestamp;temperature;humidity
20698;DHT22;10508;50.956;4.640;2023-02-01T00:02:00;7.10;99.90
20698;DHT22;10508;50.956;4.640;2023-02-01T00:04:26;7.00;99.90
20698;DHT22;10508;50.956;4.640;2023-02-01T00:06:52;7.00;99.90
20698;DHT22;10508;50.956;4.640;2023-02-01T00:09:18;7.20;99.90
20698;DHT22;10508;50.956;4.640;2023-02-01T00:11:43;7.10;99.90
20698;DHT22;10508;50.956;4.640;2023-02-01T00:14:09;7.10;99.90
20698;DHT22;10508;50.956;4.640;2023-02-01T00:16:35;7.10;99.90
20698;DHT22;10508;50.956;4.640;2023-02-01T00:19:12;7.20;99.90
20698;DHT22;10508;50.956;4.640;2023-02-01T00:21:37;7.10;99.90
20698;DHT22;10508;50.956;4.640;2023-02-01T00:24:03;7.10;99.90
20698;DHT22;10508;50.956;4.640;2023-02-01T00:26:36;7.10;99.90
20698;DHT22;10508;50.956;4.640;2023-02-01T00:29:05;7.20;99.90
20698;DHT22;10508;50.956;4.640;2023-02-01T00:31:31;7.20;99.90
20698;DHT22;10508;50.956;4.640;2023-02-01T00:33:57;7.30;99.90
20698;DHT22;10508;50.956;4.640;2023-02-01T00:36:23;7.30;99.90
20698;DHT22;10508;50.956;4.640;2023-02-01T00:38:48;7.50;99.90
20698;DHT22;10508;50.956;4.640;2023-02-01T00:41:32;7.30;99.90
20698;DHT22;10508;50.956;4.640;2023-02-01T00:43:58;7.10;99.90
20698;DHT22;10508;50.956;4.640;2023-02-01T00:46:24;7.30;99.90
20698;DHT22;10508;50.956;4.640;2023-02-01T00:48:51;7.30;99.90
20698;DHT22;10508;50.956;4.640;2023-02-01T00:51:32;7.30;99.90
20698;DHT22;10508;50.956;4.640;2023-02-01T00:53:57;7.30;99.90
20698;DHT22;10508;50.956;4.640;2023-02-01T00:56:23;7.30;99.90
20698;DHT22;10508;50.956;4.640;2023-02-01T00:58:49;7.20;99.90
20698;DHT22;10508;50.956;4.640;2023-02-01T01:01:16;7.20;99.90
20698;DHT22;10508;50.956;4.640;2023-02-01T01:03:47;7.20;99.90
20698;DHT22;10508;50.956;4.640;2023-02-01T01:06:51;7.20;99.90
20698;DHT22;10508;50.956;4.640;2023-02-01T01:09:10;7.00;99.90
20698;DHT22;10508;50.956;4.640;2023-02-01T01:11:37;7.20;99.90
20698;DHT22;10508;50.956;4.640;2023-02-01T01:14:03;7.20;99.90
20698;DHT22;10508;50.956;4.640;2023-02-01T01:16:31;6.90;99.90
20698;DHT22;10508;50.956;4.640;2023-02-01T01:18:57;7.10;99.90
20698;DHT22;10508;50.956;4.640;2023-02-01T01:21:22;7.10;99.90
20698;DHT22;10508;50.956;4.640;2023-02-01T01:23:48;7.20;99.90
20698;DHT22;10508;50.956;4.640;2023-02-01T01:26:17;7.10;99.90
20698;DHT22;10508;50.956;4.640;2023-02-01T01:28:43;7.20;99.90
20698;DHT22;10508;50.956;4.640;2023-02-01T01:31:10;8.00;99.90
20698;DHT22;10508;50.956;4.640;2023-02-01T01:33:36;7.30;99.90
20698;DHT22;10508;50.956;4.640;2023-02-01T01:36:04;7.20;99.90
20698;DHT22;10508;50.956;4.640;2023-02-01T01:38:29;7.30;99.90
20698;DHT22;10508;50.956;4.640;2023-02-01T01:40:55;7.30;99.90
20698;DHT22;10508;50.956;4.640;2023-02-01T01:43:21;7.20;99.90
20698;DHT22;10508;50.956;4.640;2023-02-01T01:45:48;7.20;99.90
20698;DHT22;10508;50.956;4.640;2023-02-01T01:50:51;7.20;99.90
20698;DHT22;10508;50.956;4.640;2023-02-01T01:53:33;7.20;99.90
20698;DHT22;10508;50.956;4.640;2023-02-01T01:56:02;7.20;99.90
20698;DHT22;10508;50.956;4.640;2023-02-01T01:58:29;7.20;99.90
20698;DHT22;10508;50.956;4.640;2023-02-01T02:00:57;7.30;99.90
20698;DHT22;10508;50.956;4.640;2023-02-01T02:03:33;7.20;99.90
20698;DHT22;10508;50.956;4.640;2023-02-01T02:06:02;7.20;99.90
20698;DHT22;10508;50.956;4.640;2023-02-01T02:08:30;7.20;99.90
20698;DHT22;10508;50.956;4.640;2023-02-01T02:10:55;7.20;99.90
20698;DHT22;10508;50.956;4.640;2023-02-01T02:13:35;7.20;99.90
20698;DHT22;10508;50.956;4.640;2023-02-01T02:39:02;6.70;99.90
20698;DHT22;10508;50.956;4.640;2023-02-01T02:44:47;6.70;99.90
20698;DHT22;10508;50.956;4.640;2023-02-01T02:47:54;6.60;99.90
20698;DHT22;10508;50.956;4.640;2023-02-01T02:53:16;6.50;99.90
20698;DHT22;10508;50.956;4.640;2023-02-01T02:56:06;6.50;99.90
20698;DHT22;10508;50.956;4.640;2023-02-01T02:58:51;6.50;99.90
20698;DHT22;10508;50.956;4.640;2023-02-01T03:01:37;6.50;99.90
20698;DHT22;10508;50.956;4.640;2023-02-01T03:04:22;6.50;99.90
20698;DHT22;10508;50.956;4.640;2023-02-01T03:06:52;6.40;99.90
20698;DHT22;10508;50.956;4.640;2023-02-01T03:09:26;6.40;99.90
20698;DHT22;10508;50.956;4.640;2023-02-01T03:11:56;6.40;99.90
20698;DHT22;10508;50.956;4.640;2023-02-01T03:14:47;6.50;99.90
20698;DHT22;10508;50.956;4.640;2023-02-01T03:17:19;6.40;99.90
20698;DHT22;10508;50.956;4.640;2023-02-01T03:19:48;6.40;99.90
20698;DHT22;10508;50.956;4.640;2023-02-01T03:22:23;6.40;99.90
20698;DHT22;10508;50.956;4.640;2023-02-01T03:24:59;6.40;99.90
20698;DHT22;10508;50.956;4.640;2023-02-01T03:27:51;6.40;99.90
20698;DHT22;10508;50.956;4.640;2023-02-01T03:30:21;6.40;99.90
20698;DHT22;10508;50.956;4.640;2023-02-01T03:32:50;6.40;99.90
20698;DHT22;10508;50.956;4.640;2023-02-01T03:38:23;6.40;99.90
20698;DHT22;10508;50.956;4.640;2023-02-01T03:43:53;6.40;99.90
20698;DHT22;10508;50.956;4.640;2023-02-01T03:49:37;6.40;99.90
20698;DHT22;10508;50.956;4.640;2023-02-01T03:52:05;6.30;99.90
20698;DHT22;10508;50.956;4.640;2023-02-01T03:54:32;6.40;99.90
20698;DHT22;10508;50.956;4.640;2023-02-01T03:57:03;6.40;99.90
20698;DHT22;10508;50.956;4.640;2023-02-01T03:59:30;6.30;99.90
20698;DHT22;10508;50.956;4.640;2023-02-01T04:01:56;6.40;99.90
20698;DHT22;10508;50.956;4.640;2023-02-01T04:04:21;6.30;99.90
20698;DHT22;10508;50.956;4.640;2023-02-01T04:06:50;6.30;99.90
20698;DHT22;10508;50.956;4.640;2023-02-01T04:09:16;6.30;99.90
20698;DHT22;10508;50.956;4.640;2023-02-01T04:11:42;6.30;99.90
20698;DHT22;10508;50.956;4.640;2023-02-01T04:14:08;6.20;99.90
20698;DHT22;10508;50.956;4.640;2023-02-01T04:16:36;6.20;99.90
20698;DHT22;10508;50.956;4.640;2023-02-01T04:19:02;6.20;99.90
20698;DHT22;10508;50.956;4.640;2023-02-01T04:21:28;6.10;99.90
20698;DHT22;10508;50.956;4.640;2023-02-01T04:23:56;6.10;99.90
20698;DHT22;10508;50.956;4.640;2023-02-01T04:26:22;6.00;99.90
20698;DHT22;10508;50.956;4.640;2023-02-01T04:28:48;6.00;99.90
20698;DHT22;10508;50.956;4.640;2023-02-01T04:31:14;6.00;99.90
20698;DHT22;10508;50.956;4.640;2023-02-01T04:33:40;6.00;99.90
20698;DHT22;10508;50.956;4.640;2023-02-01T04:36:06;6.00;99.90
20698;DHT22;10508;50.956;4.640;2023-02-01T04:38:31;6.00;99.90
20698;DHT22;10508;50.956;4.640;2023-02-01T04:40:58;6.00;99.90
20698;DHT22;10508;50.956;4.640;2023-02-01T04:43:24;6.00;99.90
20698;DHT22;10508;50.956;4.640;2023-02-01T04:45:50;6.00;99.90
20698;DHT22;10508;50.956;4.640;2023-02-01T04:48:18;6.10;99.90
20698;DHT22;10508;50.956;4.640;2023-02-01T04:50:48;6.00;99.90
20698;DHT22;10508;50.956;4.640;2023-02-01T04:53:17;6.00;99.90
20698;DHT22;10508;50.956;4.640;2023-02-01T04:55:43;6.00;99.90
20698;DHT22;10508;50.956;4.640;2023-02-01T04:58:09;6.00;99.90
20698;DHT22;10508;50.956;4.640;2023-02-01T05:00:36;5.90;99.90
20698;DHT22;10508;50.956;4.640;2023-02-01T05:03:02;5.90;99.90
20698;DHT22;10508;50.956;4.640;2023-02-01T05:05:28;5.90;99.90
20698;DHT22;10508;50.956;4.640;2023-02-01T05:07:54;5.90;99.90
20698;DHT22;10508;50.956;4.640;2023-02-01T05:10:20;5.90;99.90
20698;DHT22;10508;50.956;4.640;2023-02-01T05:12:46;5.80;99.90
20698;DHT22;10508;50.956;4.640;2023-02-01T05:15:31;5.90;99.90
20698;DHT22;10508;50.956;4.640;2023-02-01T05:17:57;5.80;99.90
20698;DHT22;10508;50.956;4.640;2023-02-01T05:20:23;5.90;99.90
20698;DHT22;10508;50.956;4.640;2023-02-01T05:22:50;5.80;99.90
20698;DHT22;10508;50.956;4.640;2023-02-01T05:25:15;5.80;99.90
20698;DHT22;10508;50.956;4.640;2023-02-01T05:27:46;5.80;99.90
20698;DHT22;10508;50.956;4.640;2023-02-01T05:30:12;5.70;99.90
20698;DHT22;10508;50.956;4.640;2023-02-01T05:32:40;5.70;99.90
20698;DHT22;10508;50.956;4.640;2023-02-01T05:35:11;5.80;99.90
20698;DHT22;10508;50.956;4.640;2023-02-01T05:37:37;5.80;99.90
20698;DHT22;10508;50.956;4.640;2023-02-01T05:40:02;5.70;99.90
20698;DHT22;10508;50.956;4.640;2023-02-01T05:42:28;5.70;99.90
20698;DHT22;10508;50.956;4.640;2023-02-01T05:44:54;5.70;99.90
20698;DHT22;10508;50.956;4.640;2023-02-01T05:47:19;5.70;99.90
20698;DHT22;10508;50.956;4.640;2023-02-01T05:49:46;5.70;99.90
20698;DHT22;10508;50.956;4.640;2023-02-01T05:52:11;5.70;99.90
20698;DHT22;10508;50.956;4.640;2023-02-01T05:54:37;5.70;99.90
20698;DHT22;10508;50.956;4.640;2023-02-01T05:57:02;5.80;99.90
20698;DHT22;10508;50.956;4.640;2023-02-01T05:59:28;5.70;99.90
20698;DHT22;10508;50.956;4.640;2023-02-01T06:01:54;5.70;99.90
20698;DHT22;10508;50.956;4.640;2023-02-01T06:04:20;5.70;99.90
20698;DHT22;10508;50.956;4.640;2023-02-01T06:06:46;5.70;99.90
20698;DHT22;10508;50.956;4.640;2023-02-01T06:09:11;5.70;99.90
20698;DHT22;10508;50.956;4.640;2023-02-01T06:11:37;5.60;99.90
20698;DHT22;10508;50.956;4.640;2023-02-01T06:14:02;5.70;99.90
20698;DHT22;10508;50.956;4.640;2023-02-01T06:16:28;5.70;99.90
20698;DHT22;10508;50.956;4.640;2023-02-01T06:18:54;5.60;99.90
20698;DHT22;10508;50.956;4.640;2023-02-01T06:21:19;5.60;99.90
20698;DHT22;10508;50.956;4.640;2023-02-01T06:23:53;5.60;99.90
20698;DHT22;10508;50.956;4.640;2023-02-01T06:26:19;5.50;99.90
20698;DHT22;10508;50.956;4.640;2023-02-01T06:28:45;5.60;99.90
20698;DHT22;10508;50.956;4.640;2023-02-01T06:31:11;5.60;99.90
20698;DHT22;10508;50.956;4.640;2023-02-01T06:33:37;5.50;99.90
20698;DHT22;10508;50.956;4.640;2023-02-01T06:36:06;5.50;99.90
20698;DHT22;10508;50.956;4.640;2023-02-01T06:38:33;5.60;99.90
20698;DHT22;10508;50.956;4.640;2023-02-01T06:41:02;5.60;99.90
20698;DHT22;10508;50.956;4.640;2023-02-01T06:43:28;5.70;99.90
20698;DHT22;10508;50.956;4.640;2023-02-01T06:46:00;5.70;99.90
20698;DHT22;10508;50.956;4.640;2023-02-01T06:48:26;5.60;99.90
20698;DHT22;10508;50.956;4.640;2023-02-01T06:50:52;5.60;99.90
20698;DHT22;10508;50.956;4.640;2023-02-01T06:53:17;5.60;99.90
20698;DHT22;10508;50.956;4.640;2023-02-01T06:55:54;5.70;99.90
20698;DHT22;10508;50.956;4.640;2023-02-01T06:58:20;5.60;99.90
20698;DHT22;10508;50.956;4.640;2023-02-01T07:00:46;5.70;99.90
20698;DHT22;10508;50.956;4.640;2023-02-01T07:03:11;5.60;99.90
20698;DHT22;10508;50.956;4.640;2023-02-01T07:05:37;5.60;99.90
20698;DHT22;10508;50.956;4.640;2023-02-01T07:08:03;5.60;99.90
20698;DHT22;10508;50.956;4.640;2023-02-01T07:10:28;5.60;99.90
20698;DHT22;10508;50.956;4.640;2023-02-01T07:12:57;5.60;99.90
20698;DHT22;10508;50.956;4.640;2023-02-01T07:15:23;5.60;99.90
20698;DHT22;10508;50.956;4.640;2023-02-01T07:17:48;5.60;99.90
20698;DHT22;10508;50.956;4.640;2023-02-01T07:20:15;5.60;99.90
20698;DHT22;10508;50.956;4.640;2023-02-01T07:22:41;5.70;99.90
20698;DHT22;10508;50.956;4.640;2023-02-01T07:25:07;5.70;99.90
20698;DHT22;10508;50.956;4.640;2023-02-01T07:27:35;5.60;99.90
20698;DHT22;10508;50.956;4.640;2023-02-01T07:30:02;5.60;99.90
20698;DHT22;10508;50.956;4.640;2023-02-01T07:32:29;5.70;99.90
20698;DHT22;10508;50.956;4.640;2023-02-01T07:34:54;5.60;99.90
20698;DHT22;10508;50.956;4.640;2023-02-01T07:37:20;5.60;99.90
20698;DHT22;10508;50.956;4.640;2023-02-01T07:39:46;5.60;99.90
20698;DHT22;10508;50.956;4.640;2023-02-01T07:42:11;5.60;99.90
20698;DHT22;10508;50.956;4.640;2023-02-01T07:44:37;5.60;99.90
20698;DHT22;10508;50.956;4.640;2023-02-01T07:47:03;5.70;99.90
20698;DHT22;10508;50.956;4.640;2023-02-01T07:49:28;5.70;99.90
20698;DHT22;10508;50.956;4.640;2023-02-01T07:51:54;5.80;99.90
20698;DHT22;10508;50.956;4.640;2023-02-01T07:54:19;5.80;99.90
20698;DHT22;10508;50.956;4.640;2023-02-01T07:56:45;5.80;99.90
20698;DHT22;10508;50.956;4.640;2023-02-01T07:59:11;5.80;99.90
20698;DHT22;10508;50.956;4.640;2023-02-01T08:01:37;5.80;99.90
20698;DHT22;10508;50.956;4.640;2023-02-01T08:04:03;5.90;99.90
20698;DHT22;10508;50.956;4.640;2023-02-01T08:06:31;5.90;99.90
20698;DHT22;10508;50.956;4.640;2023-02-01T08:08:57;6.00;99.90
20698;DHT22;10508;50.956;4.640;2023-02-01T08:11:24;6.00;99.90
20698;DHT22;10508;50.956;4.640;2023-02-01T08:13:50;6.10;99.90
20698;DHT22;10508;50.956;4.640;2023-02-01T08:16:17;6.20;99.90
20698;DHT22;10508;50.956;4.640;2023-02-01T08:18:43;6.20;99.90
20698;DHT22;10508;50.956;4.640;2023-02-01T08:21:20;6.30;99.90
20698;DHT22;10508;50.956;4.640;2023-02-01T08:23:47;6.30;99.90
20698;DHT22;10508;50.956;4.640;2023-02-01T08:26:17;6.30;99.90
20698;DHT22;10508;50.956;4.640;2023-02-01T08:28:46;6.30;99.90
20698;DHT22;10508;50.956;4.640;2023-02-01T08:31:16;6.40;99.90
20698;DHT22;10508;50.956;4.640;2023-02-01T08:33:42;6.40;99.90
20698;DHT22;10508;50.956;4.640;2023-02-01T08:36:09;6.50;99.90
20698;DHT22;10508;50.956;4.640;2023-02-01T08:38:36;6.60;99.90
20698;DHT22;10508;50.956;4.640;2023-02-01T08:41:11;6.50;99.90
20698;DHT22;10508;50.956;4.640;2023-02-01T08:43:37;6.50;99.90
20698;DHT22;10508;50.956;4.640;2023-02-01T08:46:22;6.50;99.90
20698;DHT22;10508;50.956;4.640;2023-02-01T08:48:49;6.60;99.90
20698;DHT22;10508;50.956;4.640;2023-02-01T08:51:17;6.80;99.90
20698;DHT22;10508;50.956;4.640;2023-02-01T08:53:43;6.60;99.90
20698;DHT22;10508;50.956;4.640;2023-02-01T08:56:11;6.70;99.90
20698;DHT22;10508;50.956;4.640;2023-02-01T08:58:37;6.70;99.90
20698;DHT22;10508;50.956;4.640;2023-02-01T09:01:08;6.90;99.90
20698;DHT22;10508;50.956;4.640;2023-02-01T09:03:34;7.00;99.90
20698;DHT22;10508;50.956;4.640;2023-02-01T09:06:01;6.90;99.90
20698;DHT22;10508;50.956;4.640;2023-02-01T09:08:27;6.90;99.90
20698;DHT22;10508;50.956;4.640;2023-02-01T09:10:52;6.90;99.90
20698;DHT22;10508;50.956;4.640;2023-02-01T09:13:18;7.00;99.90
20698;DHT22;10508;50.956;4.640;2023-02-01T09:15:44;7.10;99.90
20698;DHT22;10508;50.956;4.640;2023-02-01T09:18:09;7.10;99.90
20698;DHT22;10508;50.956;4.640;2023-02-01T09:20:36;7.40;99.90
20698;DHT22;10508;50.956;4.640;2023-02-01T09:23:02;7.40;99.90
20698;DHT22;10508;50.956;4.640;2023-02-01T09:25:28;7.50;99.90
20698;DHT22;10508;50.956;4.640;2023-02-01T09:27:53;7.60;99.90
20698;DHT22;10508;50.956;4.640;2023-02-01T09:30:19;7.70;99.90
20698;DHT22;10508;50.956;4.640;2023-02-01T09:32:45;7.90;99.90
20698;DHT22;10508;50.956;4.640;2023-02-01T09:35:10;8.20;99.90
20698;DHT22;10508;50.956;4.640;2023-02-01T09:37:36;8.30;99.90
20698;DHT22;10508;50.956;4.640;2023-02-01T09:40:03;8.20;99.90
20698;DHT22;10508;50.956;4.640;2023-02-01T09:42:56;8.40;99.90
20698;DHT22;10508;50.956;4.640;2023-02-01T09:45:32;8.40;99.90
20698;DHT22;10508;50.956;4.640;2023-02-01T09:48:15;8.70;99.90
20698;DHT22;10508;50.956;4.640;2023-02-01T09:50:48;8.90;99.90
20698;DHT22;10508;50.956;4.640;2023-02-01T09:53:23;9.20;99.90
20698;DHT22;10508;50.956;4.640;2023-02-01T09:55:53;9.60;99.90
20698;DHT22;10508;50.956;4.640;2023-02-01T09:58:25;10.20;99.90
20698;DHT22;10508;50.956;4.640;2023-02-01T10:00:59;10.90;99.90
20698;DHT22;10508;50.956;4.640;2023-02-01T10:03:29;11.30;99.90
20698;DHT22;10508;50.956;4.640;2023-02-01T10:19:33;15.20;96.70
20698;DHT22;10508;50.956;4.640;2023-02-01T10:22:09;15.60;96.50
20698;DHT22;10508;50.956;4.640;2023-02-01T10:27:22;16.40;92.20
20698;DHT22;10508;50.956;4.640;2023-02-01T10:29:56;16.50;91.50
20698;DHT22;10508;50.956;4.640;2023-02-01T10:32:29;16.50;91.20
20698;DHT22;10508;50.956;4.640;2023-02-01T10:34:59;15.70;91.80
20698;DHT22;10508;50.956;4.640;2023-02-01T10:37:31;16.00;92.30
20698;DHT22;10508;50.956;4.640;2023-02-01T10:40:18;16.50;90.90
20698;DHT22;10508;50.956;4.640;2023-02-01T10:42:47;16.80;90.30
20698;DHT22;10508;50.956;4.640;2023-02-01T10:45:24;17.10;90.60
20698;DHT22;10508;50.956;4.640;2023-02-01T10:47:52;17.70;90.10
20698;DHT22;10508;50.956;4.640;2023-02-01T10:50:56;18.00;88.80
20698;DHT22;10508;50.956;4.640;2023-02-01T10:53:41;18.10;88.70
20698;DHT22;10508;50.956;4.640;2023-02-01T10:56:10;18.10;88.10
20698;DHT22;10508;50.956;4.640;2023-02-01T10:58:46;18.10;86.10
20698;DHT22;10508;50.956;4.640;2023-02-01T11:01:34;17.40;86.50
20698;DHT22;10508;50.956;4.640;2023-02-01T11:04:01;17.60;87.30
20698;DHT22;10508;50.956;4.640;2023-02-01T11:06:37;18.30;86.90
20698;DHT22;10508;50.956;4.640;2023-02-01T11:09:17;18.70;85.50
20698;DHT22;10508;50.956;4.640;2023-02-01T11:14:19;18.50;85.00
20698;DHT22;10508;50.956;4.640;2023-02-01T11:16:49;17.80;86.40
20698;DHT22;10508;50.956;4.640;2023-02-01T11:19:16;16.60;88.20
20698;DHT22;10508;50.956;4.640;2023-02-01T11:21:43;15.60;90.30
20698;DHT22;10508;50.956;4.640;2023-02-01T11:24:32;14.80;91.40
20698;DHT22;10508;50.956;4.640;2023-02-01T11:27:03;14.20;91.70
20698;DHT22;10508;50.956;4.640;2023-02-01T11:29:36;14.10;92.60
20698;DHT22;10508;50.956;4.640;2023-02-01T11:32:03;14.20;92.00
20698;DHT22;10508;50.956;4.640;2023-02-01T11:35:06;14.10;91.70
20698;DHT22;10508;50.956;4.640;2023-02-01T11:37:38;14.00;92.20
20698;DHT22;10508;50.956;4.640;2023-02-01T11:43:07;14.30;92.30
20698;DHT22;10508;50.956;4.640;2023-02-01T11:45:33;14.00;92.40
20698;DHT22;10508;50.956;4.640;2023-02-01T11:48:01;13.50;92.70
20698;DHT22;10508;50.956;4.640;2023-02-01T11:50:50;14.40;92.90
20698;DHT22;10508;50.956;4.640;2023-02-01T11:53:41;14.70;91.20
20698;DHT22;10508;50.956;4.640;2023-02-01T11:56:38;15.00;91.50
20698;DHT22;10508;50.956;4.640;2023-02-01T12:06:53;14.10;92.00
20698;DHT22;10508;50.956;4.640;2023-02-01T12:29:10;12.40;94.50
20698;DHT22;10508;50.956;4.640;2023-02-01T12:31:54;12.40;95.00
20698;DHT22;10508;50.956;4.640;2023-02-01T12:34:49;12.10;94.40
20698;DHT22;10508;50.956;4.640;2023-02-01T12:37:46;12.00;94.70
20698;DHT22;10508;50.956;4.640;2023-02-01T12:43:27;11.70;95.20
20698;DHT22;10508;50.956;4.640;2023-02-01T12:46:03;11.60;95.00
20698;DHT22;10508;50.956;4.640;2023-02-01T12:49:05;11.50;94.90
20698;DHT22;10508;50.956;4.640;2023-02-01T12:51:35;11.60;95.30
20698;DHT22;10508;50.956;4.640;2023-02-01T12:55:01;11.50;94.90
20698;DHT22;10508;50.956;4.640;2023-02-01T12:57:03;11.40;94.40
20698;DHT22;10508;50.956;4.640;2023-02-01T12:59:37;11.40;95.10
20698;DHT22;10508;50.956;4.640;2023-02-01T13:02:31;11.50;94.90
20698;DHT22;10508;50.956;4.640;2023-02-01T13:05:16;11.50;95.30
20698;DHT22;10508;50.956;4.640;2023-02-01T13:07:49;11.50;95.00
20698;DHT22;10508;50.956;4.640;2023-02-01T13:10:24;11.50;94.90
20698;DHT22;10508;50.956;4.640;2023-02-01T13:16:12;11.40;95.40
20698;DHT22;10508;50.956;4.640;2023-02-01T13:18:36;11.40;95.10
20698;DHT22;10508;50.956;4.640;2023-02-01T13:21:39;11.30;95.20
20698;DHT22;10508;50.956;4.640;2023-02-01T13:24:17;11.40;95.00
20698;DHT22;10508;50.956;4.640;2023-02-01T13:26:46;11.40;95.10
20698;DHT22;10508;50.956;4.640;2023-02-01T13:29:12;11.30;95.30
20698;DHT22;10508;50.956;4.640;2023-02-01T13:40:42;11.30;95.20
20698;DHT22;10508;50.956;4.640;2023-02-01T13:43:35;11.40;95.60
20698;DHT22;10508;50.956;4.640;2023-02-01T13:46:09;11.30;95.70
20698;DHT22;10508;50.956;4.640;2023-02-01T13:48:58;11.30;95.20
20698;DHT22;10508;50.956;4.640;2023-02-01T13:51:46;11.20;95.40
20698;DHT22;10508;50.956;4.640;2023-02-01T13:54:34;11.10;95.40
20698;DHT22;10508;50.956;4.640;2023-02-01T13:57:03;11.10;95.70
20698;DHT22;10508;50.956;4.640;2023-02-01T14:04:54;11.20;96.10
20698;DHT22;10508;50.956;4.640;2023-02-01T14:07:22;11.10;95.70
20698;DHT22;10508;50.956;4.640;2023-02-01T14:09:47;11.00;96.30
20698;DHT22;10508;50.956;4.640;2023-02-01T14:15:25;11.00;96.50
20698;DHT22;10508;50.956;4.640;2023-02-01T14:17:51;11.10;96.50
20698;DHT22;10508;50.956;4.640;2023-02-01T14:20:40;11.00;96.00
20698;DHT22;10508;50.956;4.640;2023-02-01T14:23:12;10.90;96.10
20698;DHT22;10508;50.956;4.640;2023-02-01T14:25:39;11.00;96.50
20698;DHT22;10508;50.956;4.640;2023-02-01T14:28:34;10.90;96.30
20698;DHT22;10508;50.956;4.640;2023-02-01T14:30:58;10.90;96.90
20698;DHT22;10508;50.956;4.640;2023-02-01T14:33:27;10.90;96.60
20698;DHT22;10508;50.956;4.640;2023-02-01T14:36:08;10.90;97.10
20698;DHT22;10508;50.956;4.640;2023-02-01T14:38:36;10.80;97.00
20698;DHT22;10508;50.956;4.640;2023-02-01T14:49:58;10.70;97.00
20698;DHT22;10508;50.956;4.640;2023-02-01T14:52:29;10.70;97.30
20698;DHT22;10508;50.956;4.640;2023-02-01T14:55:01;10.70;97.30
20698;DHT22;10508;50.956;4.640;2023-02-01T14:57:29;10.70;97.60
20698;DHT22;10508;50.956;4.640;2023-02-01T15:02:49;10.70;97.50
20698;DHT22;10508;50.956;4.640;2023-02-01T15:05:29;10.60;97.40
20698;DHT22;10508;50.956;4.640;2023-02-01T15:08:28;10.50;97.50
20698;DHT22;10508;50.956;4.640;2023-02-01T15:10:57;10.50;97.70
20698;DHT22;10508;50.956;4.640;2023-02-01T15:13:26;10.40;97.50
20698;DHT22;10508;50.956;4.640;2023-02-01T15:16:14;10.40;97.70
20698;DHT22;10508;50.956;4.640;2023-02-01T15:18:40;10.40;97.70
20698;DHT22;10508;50.956;4.640;2023-02-01T15:21:15;10.40;97.90
20698;DHT22;10508;50.956;4.640;2023-02-01T15:23:40;10.50;98.40
20698;DHT22;10508;50.956;4.640;2023-02-01T15:26:06;10.50;98.40
20698;DHT22;10508;50.956;4.640;2023-02-01T15:28:32;10.40;98.30
20698;DHT22;10508;50.956;4.640;2023-02-01T15:31:04;10.40;98.60
20698;DHT22;10508;50.956;4.640;2023-02-01T15:33:31;10.40;98.70
20698;DHT22;10508;50.956;4.640;2023-02-01T15:38:42;10.40;98.70
20698;DHT22;10508;50.956;4.640;2023-02-01T15:41:20;10.40;98.40
20698;DHT22;10508;50.956;4.640;2023-02-01T15:46:22;10.30;99.00
20698;DHT22;10508;50.956;4.640;2023-02-01T15:48:51;10.30;99.10
20698;DHT22;10508;50.956;4.640;2023-02-01T15:51:19;10.20;99.10
20698;DHT22;10508;50.956;4.640;2023-02-01T15:56:40;10.20;99.10
20698;DHT22;10508;50.956;4.640;2023-02-01T15:59:17;10.20;99.20
20698;DHT22;10508;50.956;4.640;2023-02-01T16:01:43;10.20;99.30
20698;DHT22;10508;50.956;4.640;2023-02-01T16:04:27;10.10;99.20
20698;DHT22;10508;50.956;4.640;2023-02-01T16:06:56;10.10;99.60
20698;DHT22;10508;50.956;4.640;2023-02-01T16:09:24;10.10;99.70
20698;DHT22;10508;50.956;4.640;2023-02-01T16:12:00;10.10;99.70
20698;DHT22;10508;50.956;4.640;2023-02-01T16:14:26;10.10;99.70
20698;DHT22;10508;50.956;4.640;2023-02-01T16:16:55;10.00;99.80
20698;DHT22;10508;50.956;4.640;2023-02-01T16:19:21;10.00;99.90
20698;DHT22;10508;50.956;4.640;2023-02-01T16:21:48;10.00;99.70
20698;DHT22;10508;50.956;4.640;2023-02-01T16:24:14;10.00;99.90
20698;DHT22;10508;50.956;4.640;2023-02-01T16:26:40;10.00;99.90
20698;DHT22;10508;50.956;4.640;2023-02-01T16:29:06;10.00;99.90
20698;DHT22;10508;50.956;4.640;2023-02-01T16:31:35;9.90;99.90
20698;DHT22;10508;50.956;4.640;2023-02-01T16:34:01;10.00;99.90
20698;DHT22;10508;50.956;4.640;2023-02-01T16:36:27;10.00;99.90
20698;DHT22;10508;50.956;4.640;2023-02-01T16:38:54;10.00;99.90
20698;DHT22;10508;50.956;4.640;2023-02-01T16:41:21;10.00;99.90
20698;DHT22;10508;50.956;4.640;2023-02-01T16:43:52;10.00;99.90
20698;DHT22;10508;50.956;4.640;2023-02-01T16:46:24;10.00;99.90
20698;DHT22;10508;50.956;4.640;2023-02-01T16:49:00;10.00;99.90
20698;DHT22;10508;50.956;4.640;2023-02-01T16:51:28;10.00;99.90
20698;DHT22;10508;50.956;4.640;2023-02-01T16:53:57;10.00;99.90
20698;DHT22;10508;50.956;4.640;2023-02-01T16:56:28;9.90;99.90
20698;DHT22;10508;50.956;4.640;2023-02-01T16:58:54;9.90;99.90
20698;DHT22;10508;50.956;4.640;2023-02-01T17:01:20;9.90;99.90
20698;DHT22;10508;50.956;4.640;2023-02-01T17:03:46;9.90;99.90
20698;DHT22;10508;50.956;4.640;2023-02-01T17:06:15;9.80;99.90
20698;DHT22;10508;50.956;4.640;2023-02-01T17:08:47;9.80;99.90
20698;DHT22;10508;50.956;4.640;2023-02-01T17:11:15;9.80;99.90
20698;DHT22;10508;50.956;4.640;2023-02-01T17:13:41;9.80;99.90
20698;DHT22;10508;50.956;4.640;2023-02-01T17:16:22;9.80;99.90
20698;DHT22;10508;50.956;4.640;2023-02-01T17:18:57;9.80;99.90
20698;DHT22;10508;50.956;4.640;2023-02-01T17:21:24;9.80;99.90
20698;DHT22;10508;50.956;4.640;2023-02-01T17:23:51;9.80;99.90
20698;DHT22;10508;50.956;4.640;2023-02-01T17:26:18;9.80;99.90
20698;DHT22;10508;50.956;4.640;2023-02-01T17:28:43;9.70;99.90
20698;DHT22;10508;50.956;4.640;2023-02-01T17:31:13;9.70;99.90
20698;DHT22;10508;50.956;4.640;2023-02-01T17:33:54;9.70;99.90
20698;DHT22;10508;50.956;4.640;2023-02-01T17:36:20;9.70;99.90
20698;DHT22;10508;50.956;4.640;2023-02-01T17:38:46;9.70;99.90
20698;DHT22;10508;50.956;4.640;2023-02-01T17:41:13;9.70;99.90
20698;DHT22;10508;50.956;4.640;2023-02-01T17:43:39;9.70;99.90
20698;DHT22;10508;50.956;4.640;2023-02-01T17:46:16;9.60;99.90
20698;DHT22;10508;50.956;4.640;2023-02-01T17:48:45;9.60;99.90
20698;DHT22;10508;50.956;4.640;2023-02-01T17:51:17;9.50;99.90
20698;DHT22;10508;50.956;4.640;2023-02-01T17:53:43;9.50;99.90
20698;DHT22;10508;50.956;4.640;2023-02-01T17:56:19;9.50;99.90
20698;DHT22;10508;50.956;4.640;2023-02-01T17:58:45;9.50;99.90
20698;DHT22;10508;50.956;4.640;2023-02-01T18:01:23;9.50;99.90
20698;DHT22;10508;50.956;4.640;2023-02-01T18:03:49;9.50;99.90
20698;DHT22;10508;50.956;4.640;2023-02-01T18:06:21;9.50;99.90
20698;DHT22;10508;50.956;4.640;2023-02-01T18:08:47;9.60;99.90
20698;DHT22;10508;50.956;4.640;2023-02-01T18:13:40;9.60;99.90
20698;DHT22;10508;50.956;4.640;2023-02-01T18:16:27;9.50;99.90
20698;DHT22;10508;50.956;4.640;2023-02-01T18:18:52;9.50;99.90